createdAt,value
2023-02-08T00:00:40.533Z,103104.42
2023-02-08T00:03:09.615Z,103105.93
2023-02-08T00:05:22.260Z,103106.22
2023-02-08T00:07:34.806Z,103106.08
2023-02-08T00:09:47.469Z,103107.63
2023-02-08T00:12:00.048Z,103108.31
2023-02-08T00:14:12.691Z,103111.96
2023-02-08T00:16:25.540Z,103123.38
2023-02-08T00:18:38.133Z,103122.08
2023-02-08T00:20:51.376Z,103119.79
2023-02-08T00:23:03.935Z,103126.22
2023-02-08T00:25:16.522Z,103128.73
2023-02-08T00:27:29.148Z,103128.28
2023-02-08T00:29:41.677Z,103131.89
2023-02-08T00:31:54.319Z,103132.59
2023-02-08T00:34:07.043Z,103129.54
2023-02-08T00:36:19.694Z,103126.44
2023-02-08T00:38:32.352Z,103131.83
2023-02-08T00:40:44.971Z,103127.41
2023-02-08T00:42:57.611Z,103126.48
2023-02-08T00:45:10.467Z,103125.83
2023-02-08T00:47:23.542Z,103126.21
2023-02-08T00:49:36.431Z,103126.16
2023-02-08T00:51:49.208Z,103128.84
2023-02-08T00:54:01.923Z,103126.01
2023-02-08T00:56:15.854Z,103125.78
2023-02-08T00:58:28.501Z,103129.02
2023-02-08T01:00:41.519Z,103130.83
2023-02-08T01:02:54.368Z,103131.40
2023-02-08T01:05:07.946Z,103131.42
2023-02-08T01:07:20.543Z,103130.39
2023-02-08T01:09:33.652Z,103129.52
2023-02-08T01:11:46.269Z,103132.14
2023-02-08T01:13:59.339Z,103126.55
2023-02-08T01:16:14.834Z,103128.02
2023-02-08T01:18:27.480Z,103126.09
2023-02-08T01:20:40.333Z,103123.31
2023-02-08T01:22:53.129Z,103120.63
2023-02-08T01:25:05.869Z,103118.02
2023-02-08T01:27:18.420Z,103117.96
2023-02-08T01:29:31.064Z,103118.50
2023-02-08T01:31:45.213Z,103116.19
2023-02-08T01:33:59.159Z,103118.15
2023-02-08T01:36:12.271Z,103119.67
2023-02-08T01:38:24.985Z,103117.45
2023-02-08T01:40:37.642Z,103111.90
2023-02-08T01:42:50.290Z,103107.92
2023-02-08T01:45:23.017Z,103114.02
2023-02-08T01:47:35.620Z,103116.02
2023-02-08T01:49:48.345Z,103113.75
2023-02-08T01:52:14.528Z,103115.66
2023-02-08T01:54:30.413Z,103111.63
2023-02-08T01:56:45.868Z,103114.40
2023-02-08T01:59:01.739Z,103106.81
2023-02-08T02:01:14.578Z,103106.58
2023-02-08T02:03:27.435Z,103106.67
2023-02-08T02:05:42.919Z,103107.58
2023-02-08T02:07:57.473Z,103105.29
2023-02-08T02:10:16.221Z,103105.89
2023-02-08T02:12:31.843Z,103098.10
2023-02-08T02:14:45.669Z,103097.88
2023-02-08T02:17:00.793Z,103097.27
2023-02-08T02:19:25.134Z,103094.13
2023-02-08T02:21:48.606Z,103092.58
2023-02-08T02:24:26.737Z,103093.19
2023-02-08T02:27:17.080Z,103092.29
2023-02-08T02:29:51.257Z,103089.70
2023-02-08T02:32:23.462Z,103084.31
2023-02-08T02:35:04.004Z,103078.76
2023-02-08T02:37:37.633Z,103083.10
2023-02-08T02:40:09.096Z,103081.50
2023-02-08T02:43:01.579Z,103083.27
2023-02-08T02:45:26.640Z,103086.99
2023-02-08T02:47:49.729Z,103091.98
2023-02-08T02:50:16.918Z,103090.22
2023-02-08T02:52:39.514Z,103092.39
2023-02-08T02:54:55.626Z,103089.59
2023-02-08T02:57:14.930Z,103090.85
2023-02-08T02:59:28.705Z,103093.25
2023-02-08T03:01:44.132Z,103093.83
2023-02-08T03:03:57.014Z,103094.27
2023-02-08T03:06:20.149Z,103091.70
2023-02-08T03:09:06.940Z,103091.17
2023-02-08T03:11:31.610Z,103101.55
2023-02-08T03:14:16.880Z,103102.46
2023-02-08T03:17:00.697Z,103104.45
2023-02-08T03:19:30.990Z,103105.20
2023-02-08T03:21:51.207Z,103108.20
2023-02-08T03:24:17.793Z,103106.29
2023-02-08T03:26:37.714Z,103111.42
2023-02-08T03:29:08.806Z,103112.88
2023-02-08T03:31:38.180Z,103111.54
2023-02-08T03:34:07.266Z,103116.25
2023-02-08T03:36:27.366Z,103115.73
2023-02-08T03:38:42.999Z,103115.09
2023-02-08T03:40:59.856Z,103116.42
2023-02-08T03:43:22.204Z,103119.42
2023-02-08T03:45:43.752Z,103117.73
2023-02-08T03:48:00.222Z,103116.16
2023-02-08T03:50:17.369Z,103117.76
2023-02-08T03:52:31.500Z,103120.08
2023-02-08T03:54:52.001Z,103122.15
2023-02-08T03:57:20.845Z,103118.86
2023-02-08T03:59:38.783Z,103124.73
2023-02-08T04:01:58.558Z,103124.77
2023-02-08T04:04:14.149Z,103126.93
2023-02-08T04:06:27.559Z,103129.69
2023-02-08T04:08:40.134Z,103131.73
2023-02-08T04:10:52.819Z,103130.48
2023-02-08T04:13:05.368Z,103127.09
2023-02-08T04:15:18.189Z,103125.95
2023-02-08T04:17:32.239Z,103127.06
2023-02-08T04:19:44.832Z,103122.69
2023-02-08T04:21:57.430Z,103120.64
2023-02-08T04:24:10.026Z,103122.63
2023-02-08T04:26:22.600Z,103122.50
2023-02-08T04:28:35.180Z,103126.94
2023-02-08T04:30:47.873Z,103124.48
2023-02-08T04:33:00.857Z,103124.08
2023-02-08T04:35:13.508Z,103124.32
2023-02-08T04:37:26.116Z,103127.10
2023-02-08T04:39:38.805Z,103124.49
2023-02-08T04:41:51.380Z,103121.33
2023-02-08T04:44:04.014Z,103125.67
2023-02-08T04:46:16.945Z,103126.04
2023-02-08T04:48:29.663Z,103126.27
2023-02-08T04:50:42.701Z,103126.42
2023-02-08T04:52:55.514Z,103130.08
2023-02-08T04:55:08.256Z,103129.44
2023-02-08T04:57:20.825Z,103125.63
2023-02-08T04:59:33.339Z,103122.09
2023-02-08T05:01:45.991Z,103124.96
2023-02-08T05:03:58.534Z,103119.31
2023-02-08T05:06:11.372Z,103118.44
2023-02-08T05:08:23.979Z,103117.64
2023-02-08T05:10:36.559Z,103119.56
2023-02-08T05:12:49.154Z,103118.56
2023-02-08T05:15:01.914Z,103122.73
2023-02-08T05:17:14.546Z,103118.52
2023-02-08T05:19:27.303Z,103119.78
2023-02-08T05:21:40.012Z,103122.63
2023-02-08T05:23:52.664Z,103120.81
2023-02-08T05:26:07.686Z,103120.17
2023-02-08T05:28:20.481Z,103123.46
2023-02-08T05:30:33.118Z,103121.74
2023-02-08T05:32:45.975Z,103117.31
2023-02-08T05:34:58.581Z,103112.84
2023-02-08T05:37:12.443Z,103112.27
2023-02-08T05:39:24.994Z,103115.83
2023-02-08T05:41:37.510Z,103118.05
2023-02-08T05:43:50.106Z,103117.64
2023-02-08T05:46:03.511Z,103126.75
2023-02-08T05:48:16.059Z,103127.25
2023-02-08T05:50:28.645Z,103127.48
2023-02-08T05:52:41.339Z,103126.86
2023-02-08T05:54:53.969Z,103132.24
2023-02-08T05:57:06.567Z,103135.39
2023-02-08T05:59:19.121Z,103137.33
2023-02-08T06:01:31.886Z,103134.90
2023-02-08T06:03:44.496Z,103136.66
2023-02-08T06:06:04.122Z,103138.05
2023-02-08T06:08:16.944Z,103140.41
2023-02-08T06:10:29.528Z,103139.70
2023-02-08T06:12:42.096Z,103137.96
2023-02-08T06:14:54.688Z,103140.39
2023-02-08T06:17:07.275Z,103138.52
2023-02-08T06:19:19.875Z,103139.96
2023-02-08T06:21:32.652Z,103140.52
2023-02-08T06:23:45.314Z,103140.39
2023-02-08T06:25:58.240Z,103142.56
2023-02-08T06:28:10.960Z,103142.92
2023-02-08T06:30:23.602Z,103140.59
2023-02-08T06:32:36.188Z,103139.34
2023-02-08T06:34:50.628Z,103143.11
2023-02-08T06:37:05.564Z,103141.58
2023-02-08T06:39:18.176Z,103139.63
2023-02-08T06:41:30.742Z,103144.61
2023-02-08T06:43:43.326Z,103145.42
2023-02-08T06:45:55.857Z,103141.11
2023-02-08T06:48:08.456Z,103142.09
2023-02-08T06:50:23.164Z,103139.73
2023-02-08T06:52:37.142Z,103141.54
2023-02-08T06:54:49.735Z,103139.28
2023-02-08T06:57:02.253Z,103143.80
2023-02-08T06:59:14.790Z,103151.89
2023-02-08T07:01:27.359Z,103156.44
2023-02-08T07:03:40.975Z,103163.57
2023-02-08T07:06:04.457Z,103157.69
2023-02-08T07:08:17.688Z,103164.88
2023-02-08T07:10:30.237Z,103170.56
2023-02-08T07:12:42.766Z,103172.96
2023-02-08T07:14:55.358Z,103169.73
2023-02-08T07:17:07.980Z,103171.90
2023-02-08T07:19:20.549Z,103178.43
2023-02-08T07:21:33.447Z,103184.88
2023-02-08T07:23:45.933Z,103188.15
2023-02-08T07:25:59.948Z,103187.73
2023-02-08T07:28:12.502Z,103188.98
2023-02-08T07:30:25.053Z,103195.25
2023-02-08T07:32:37.570Z,103198.52
2023-02-08T07:34:50.278Z,103202.39
2023-02-08T07:37:02.824Z,103206.61
2023-02-08T07:39:15.371Z,103210.78
2023-02-08T07:41:27.894Z,103207.73
2023-02-08T07:43:42.044Z,103210.31
2023-02-08T07:45:55.055Z,103213.77
2023-02-08T07:48:07.728Z,103214.34
2023-02-08T07:50:20.344Z,103216.96
2023-02-08T07:52:32.996Z,103220.23
2023-02-08T07:54:45.502Z,103219.86
2023-02-08T07:56:58.137Z,103221.98
2023-02-08T07:59:11.130Z,103226.73
2023-02-08T08:01:23.813Z,103220.51
2023-02-08T08:03:36.598Z,103219.90
2023-02-08T08:05:53.071Z,103223.74
2023-02-08T08:08:06.838Z,103228.38
2023-02-08T08:10:19.404Z,103229.98
2023-02-08T08:12:31.944Z,103229.98
2023-02-08T08:14:44.495Z,103224.02
2023-02-08T08:16:57.040Z,103225.27
2023-02-08T08:19:09.623Z,103223.86
2023-02-08T08:21:22.175Z,103225.35
2023-02-08T08:23:36.123Z,103221.16
2023-02-08T08:25:48.777Z,103223.45
2023-02-08T08:28:02.157Z,103221.08
2023-02-08T08:30:16.724Z,103217.77
2023-02-08T08:32:29.423Z,103216.91
2023-02-08T08:34:42.055Z,103215.61
2023-02-08T08:36:54.628Z,103216.66
2023-02-08T08:39:07.240Z,103212.99
2023-02-08T08:41:22.344Z,103209.70
2023-02-08T08:43:35.196Z,103212.27
2023-02-08T08:45:49.142Z,103211.36
2023-02-08T08:48:04.118Z,103213.61
2023-02-08T08:50:16.731Z,103208.52
2023-02-08T08:52:29.319Z,103207.49
2023-02-08T08:54:41.933Z,103209.66
2023-02-08T08:56:54.492Z,103207.84
2023-02-08T08:59:06.976Z,103208.73
2023-02-08T09:01:19.571Z,103211.94
2023-02-08T09:03:32.368Z,103213.67
2023-02-08T09:05:46.344Z,103217.11
2023-02-08T09:07:58.846Z,103215.41
2023-02-08T09:10:11.427Z,103215.89
2023-02-08T09:12:23.972Z,103213.27
2023-02-08T09:14:36.541Z,103216.97
2023-02-08T09:16:49.215Z,103215.77
2023-02-08T09:19:07.080Z,103221.55
2023-02-08T09:21:22.372Z,103222.42
2023-02-08T09:23:35.647Z,103219.90
2023-02-08T09:25:50.088Z,103219.02
2023-02-08T09:28:02.731Z,103224.60
2023-02-08T09:30:15.326Z,103223.17
2023-02-08T09:32:34.026Z,103220.55
2023-02-08T09:34:47.034Z,103222.06
2023-02-08T09:36:59.552Z,103223.34
2023-02-08T09:39:18.856Z,103219.16
2023-02-08T09:41:37.117Z,103216.28
2023-02-08T09:44:07.759Z,103212.95
2023-02-08T09:46:24.524Z,103216.89
2023-02-08T09:48:40.997Z,103212.34
2023-02-08T09:51:04.036Z,103214.20
2023-02-08T09:53:34.307Z,103212.61
2023-02-08T09:55:51.190Z,103212.91
2023-02-08T09:58:15.868Z,103212.33
2023-02-08T10:00:40.860Z,103208.77
2023-02-08T10:02:57.808Z,103203.02
2023-02-08T10:05:14.984Z,103203.89
2023-02-08T10:07:28.810Z,103214.27
2023-02-08T10:09:41.364Z,103211.10
2023-02-08T10:12:22.394Z,103209.73
2023-02-08T10:15:02.343Z,103203.52
2023-02-08T10:17:34.249Z,103199.75
2023-02-08T10:20:23.229Z,103200.54
2023-02-08T10:22:54.155Z,103202.21
2023-02-08T10:25:29.580Z,103199.78
2023-02-08T10:28:20.749Z,103198.27
2023-02-08T10:31:06.076Z,103196.23
2023-02-08T10:33:28.841Z,103191.33
2023-02-08T10:35:46.690Z,103189.79
2023-02-08T10:37:59.374Z,103185.60
2023-02-08T10:40:36.515Z,103179.30
2023-02-08T10:43:19.510Z,103179.95
2023-02-08T10:46:01.403Z,103182.30
2023-02-08T10:48:29.363Z,103183.95
2023-02-08T10:50:44.233Z,103182.61
2023-02-08T10:52:56.793Z,103178.74
2023-02-08T10:55:18.176Z,103178.77
2023-02-08T10:57:34.842Z,103177.04
2023-02-08T10:59:51.036Z,103176.35
2023-02-08T11:02:20.083Z,103169.54
2023-02-08T11:04:32.712Z,103167.27
2023-02-08T11:06:47.698Z,103164.52
2023-02-08T11:09:00.391Z,103156.59
2023-02-08T11:11:12.952Z,103155.66
2023-02-08T11:13:36.775Z,103149.05
2023-02-08T11:16:01.433Z,103144.45
2023-02-08T11:18:19.349Z,103140.04
2023-02-08T11:20:40.118Z,103138.83
2023-02-08T11:22:52.766Z,103133.30
2023-02-08T11:25:07.099Z,103132.90
2023-02-08T11:27:28.551Z,103142.02
2023-02-08T11:29:41.173Z,103136.10
2023-02-08T11:31:58.075Z,103133.94
2023-02-08T11:34:11.513Z,103132.95
2023-02-08T11:36:24.138Z,103142.77
2023-02-08T11:38:42.415Z,103135.51
2023-02-08T11:40:59.511Z,103136.55
2023-02-08T11:43:32.358Z,103136.09
2023-02-08T11:45:46.716Z,103131.77
2023-02-08T11:48:01.660Z,103133.75
2023-02-08T11:50:34.351Z,103133.30
2023-02-08T11:53:14.223Z,103135.63
2023-02-08T11:55:29.694Z,103130.98
2023-02-08T11:58:01.211Z,103133.54
2023-02-08T12:00:26.501Z,103130.06
2023-02-08T12:02:40.986Z,103127.35
2023-02-08T12:04:53.771Z,103124.71
2023-02-08T12:07:17.350Z,103124.20
2023-02-08T12:10:11.032Z,103119.81
2023-02-08T12:12:39.666Z,103115.81
2023-02-08T12:15:29.709Z,103119.53
2023-02-08T12:18:07.423Z,103115.96
2023-02-08T12:20:40.108Z,103119.92
2023-02-08T12:23:27.753Z,103118.19
2023-02-08T12:25:51.570Z,103117.42
2023-02-08T12:28:29.936Z,103118.59
2023-02-08T12:31:05.119Z,103121.89
2023-02-08T12:33:37.561Z,103122.41
2023-02-08T12:36:15.266Z,103122.55
2023-02-08T12:39:17.981Z,103115.55
2023-02-08T12:42:05.352Z,103114.48
2023-02-08T12:44:51.224Z,103114.55
2023-02-08T12:47:40.081Z,103111.86
2023-02-08T12:50:24.435Z,103109.70
2023-02-08T12:52:41.438Z,103107.61
2023-02-08T12:55:02.872Z,103101.77
2023-02-08T12:57:19.503Z,103105.40
2023-02-08T12:59:39.112Z,103102.08
2023-02-08T13:01:57.352Z,103103.64
2023-02-08T13:04:36.070Z,103102.31
2023-02-08T13:06:55.815Z,103096.20
2023-02-08T13:09:22.001Z,103095.08
2023-02-08T13:11:57.356Z,103091.58
2023-02-08T13:14:31.861Z,103094.77
2023-02-08T13:16:48.978Z,103099.44
2023-02-08T13:19:34.199Z,103094.65
2023-02-08T13:21:46.842Z,103090.34
2023-02-08T13:24:00.465Z,103093.63
2023-02-08T13:26:17.316Z,103094.23
2023-02-08T13:28:30.404Z,103091.92
2023-02-08T13:30:43.667Z,103092.35
2023-02-08T13:32:57.719Z,103089.58
2023-02-08T13:35:22.587Z,103083.17
2023-02-08T13:37:35.937Z,103084.60
2023-02-08T13:39:49.155Z,103081.84
2023-02-08T13:42:04.256Z,103080.34
2023-02-08T13:44:20.834Z,103075.31
2023-02-08T13:46:45.010Z,103072.31
2023-02-08T13:49:00.444Z,103078.50
2023-02-08T13:51:33.260Z,103072.72
2023-02-08T13:53:54.963Z,103077.38
2023-02-08T13:56:34.551Z,103076.22
2023-02-08T13:58:50.113Z,103075.35
2023-02-08T14:01:08.828Z,103074.38
2023-02-08T14:03:23.904Z,103073.20
2023-02-08T14:06:10.405Z,103072.64
2023-02-08T14:08:34.996Z,103069.02
2023-02-08T14:11:02.594Z,103071.27
2023-02-08T14:13:44.702Z,103066.01
2023-02-08T14:16:29.566Z,103067.96
2023-02-08T14:18:51.961Z,103066.77
2023-02-08T14:21:07.301Z,103067.88
2023-02-08T14:23:26.164Z,103061.02
2023-02-08T14:25:45.188Z,103057.99
2023-02-08T14:28:02.227Z,103057.73
2023-02-08T14:30:17.774Z,103059.92
2023-02-08T14:32:35.870Z,103056.88
2023-02-08T14:34:48.803Z,103052.58
2023-02-08T14:37:10.537Z,103045.58
2023-02-08T14:39:28.978Z,103046.27
2023-02-08T14:41:52.071Z,103042.73
2023-02-08T14:44:39.578Z,103036.83
2023-02-08T14:46:52.156Z,103035.34
2023-02-08T14:49:18.067Z,103033.69
2023-02-08T14:51:36.746Z,103029.89
2023-02-08T14:53:56.849Z,103031.52
2023-02-08T14:56:09.312Z,103032.48
2023-02-08T14:58:27.847Z,103031.06
2023-02-08T15:00:41.414Z,103031.72
2023-02-08T15:02:54.594Z,103035.37
2023-02-08T15:05:10.479Z,103040.15
2023-02-08T15:07:42.506Z,103043.48
2023-02-08T15:09:55.679Z,103039.95
2023-02-08T15:12:23.908Z,103038.88
2023-02-08T15:14:40.542Z,103043.86
2023-02-08T15:16:55.377Z,103041.83
2023-02-08T15:19:09.756Z,103039.38
2023-02-08T15:21:36.522Z,103039.45
2023-02-08T15:24:00.289Z,103038.84
2023-02-08T15:26:23.435Z,103034.16
2023-02-08T15:28:36.610Z,103032.48
2023-02-08T15:31:09.192Z,103033.72
2023-02-08T15:33:22.157Z,103041.09
2023-02-08T15:35:35.433Z,103037.95
2023-02-08T15:37:48.142Z,103037.41
2023-02-08T15:40:02.672Z,103036.27
2023-02-08T15:42:21.768Z,103031.38
2023-02-08T15:44:34.948Z,103029.52
2023-02-08T15:49:03.165Z,103033.16
2023-02-08T15:51:16.877Z,103034.55
2023-02-08T15:53:30.851Z,103035.21
2023-02-08T15:55:50.533Z,103037.92
2023-02-08T15:58:08.318Z,103033.38
2023-02-08T16:00:31.672Z,103034.26
2023-02-08T16:02:44.862Z,103028.65
2023-02-08T16:04:58.963Z,103027.14
2023-02-08T16:07:43.571Z,103024.58
2023-02-08T16:09:57.153Z,103021.79
2023-02-08T16:12:20.864Z,103022.17
2023-02-08T16:14:50.690Z,103025.44
2023-02-08T16:17:04.679Z,103024.67
2023-02-08T16:19:32.475Z,103023.61
2023-02-08T16:21:45.306Z,103023.39
2023-02-08T16:24:11.152Z,103025.54
2023-02-08T16:26:32.200Z,103028.44
2023-02-08T16:28:52.411Z,103025.44
2023-02-08T16:31:05.855Z,103023.16
2023-02-08T16:33:19.518Z,103023.27
2023-02-08T16:35:33.501Z,103018.23
2023-02-08T16:37:46.214Z,103019.36
2023-02-08T16:40:04.672Z,103017.48
2023-02-08T16:42:29.957Z,103017.67
2023-02-08T16:44:58.786Z,103016.16
2023-02-08T16:47:34.464Z,103012.16
2023-02-08T16:49:49.406Z,103015.48
2023-02-08T16:52:02.041Z,103010.77
2023-02-08T16:54:18.114Z,103010.36
2023-02-08T16:56:30.979Z,103012.33
2023-02-08T16:58:43.628Z,103010.57
2023-02-08T17:00:57.651Z,103012.31
2023-02-08T17:03:10.216Z,103008.96
2023-02-08T17:05:26.945Z,103006.40
2023-02-08T17:07:39.834Z,103008.04
2023-02-08T17:09:52.436Z,103003.36
2023-02-08T17:12:21.911Z,103002.24
2023-02-08T17:14:35.151Z,103002.92
2023-02-08T17:16:47.882Z,103000.86
2023-02-08T17:19:01.121Z,103002.31
2023-02-08T17:21:14.218Z,103003.16
2023-02-08T17:23:27.136Z,103003.10
2023-02-08T17:25:39.943Z,103005.15
2023-02-08T17:28:03.002Z,102999.70
2023-02-08T17:30:24.510Z,103000.96
2023-02-08T17:32:37.154Z,103000.48
2023-02-08T17:34:49.676Z,103002.14
2023-02-08T17:37:02.636Z,103000.87
2023-02-08T17:39:16.688Z,103000.10
2023-02-08T17:41:29.428Z,102999.36
2023-02-08T17:43:42.089Z,103004.57
2023-02-08T17:45:54.779Z,103000.64
2023-02-08T17:48:08.142Z,103003.30
2023-02-08T17:50:21.706Z,103001.36
2023-02-08T17:52:36.288Z,102996.02
2023-02-08T17:54:48.866Z,102994.94
2023-02-08T17:57:01.567Z,102995.52
2023-02-08T17:59:14.161Z,102991.20
2023-02-08T18:01:27.121Z,102993.14
2023-02-08T18:03:39.800Z,102991.98
2023-02-08T18:06:00.285Z,102992.61
2023-02-08T18:08:12.815Z,102988.06
2023-02-08T18:10:25.601Z,102986.50
2023-02-08T18:12:38.557Z,102984.97
2023-02-08T18:14:51.155Z,102984.79
2023-02-08T18:17:03.884Z,102981.76
2023-02-08T18:19:17.105Z,102978.77
2023-02-08T18:21:33.190Z,102975.64
2023-02-08T18:23:46.605Z,102972.90
2023-02-08T18:26:11.728Z,102968.38
2023-02-08T18:28:24.442Z,102963.45
2023-02-08T18:30:37.105Z,102962.59
2023-02-08T18:32:49.691Z,102963.95
2023-02-08T18:35:04.116Z,102956.96
2023-02-08T18:37:17.390Z,102957.67
2023-02-08T18:39:30.066Z,102950.53
2023-02-08T18:41:43.408Z,102949.16
2023-02-08T18:43:57.913Z,102948.29
2023-02-08T18:46:13.308Z,102946.76
2023-02-08T18:48:26.003Z,102952.02
2023-02-08T18:50:38.580Z,102955.77
2023-02-08T18:52:51.176Z,102953.18
2023-02-08T18:55:04.355Z,102953.02
2023-02-08T18:57:17.133Z,102947.06
2023-02-08T18:59:30.049Z,102946.73
2023-02-08T19:01:42.897Z,102944.83
2023-02-08T19:03:56.550Z,102949.33
2023-02-08T19:06:11.839Z,102950.21
2023-02-08T19:08:24.772Z,102945.52
2023-02-08T19:10:38.919Z,102942.73
2023-02-08T19:12:51.653Z,102941.28
2023-02-08T19:15:04.629Z,102944.92
2023-02-08T19:17:18.159Z,102948.13
2023-02-08T19:19:30.734Z,102949.35
2023-02-08T19:21:43.621Z,102955.31
2023-02-08T19:23:58.312Z,102959.27
2023-02-08T19:26:18.767Z,102965.95
2023-02-08T19:28:35.528Z,102965.17
2023-02-08T19:30:48.141Z,102970.05
2023-02-08T19:33:00.972Z,102967.27
2023-02-08T19:35:13.907Z,102968.70
2023-02-08T19:37:26.430Z,102971.02
2023-02-08T19:39:38.990Z,102971.48
2023-02-08T19:41:53.055Z,102970.20
2023-02-08T19:44:08.073Z,102964.11
2023-02-08T19:46:23.034Z,102970.33
2023-02-08T19:48:35.960Z,102963.95
2023-02-08T19:51:00.766Z,102960.73
2023-02-08T19:53:13.548Z,102955.68
2023-02-08T19:55:26.176Z,102953.80
2023-02-08T19:57:40.227Z,102952.38
2023-02-08T19:59:53.324Z,102951.06
2023-02-08T20:02:06.917Z,102944.95
2023-02-08T20:04:20.951Z,102944.70
2023-02-08T20:06:37.088Z,102936.13
2023-02-08T20:08:50.278Z,102932.42
2023-02-08T20:11:02.809Z,102931.61
2023-02-08T20:13:15.816Z,102927.63
2023-02-08T20:15:28.338Z,102930.65
2023-02-08T20:17:42.573Z,102933.91
2023-02-08T20:19:55.351Z,102937.13
2023-02-08T20:22:08.009Z,102941.92
2023-02-08T20:24:21.320Z,102943.02
2023-02-08T20:26:33.887Z,102940.21
2023-02-08T20:28:50.726Z,102942.09
2023-02-08T20:31:15.262Z,102935.45
2023-02-08T20:33:27.905Z,102934.23
2023-02-08T20:35:40.382Z,102929.64
2023-02-08T20:37:52.914Z,102926.25
2023-02-08T20:40:05.847Z,102919.73
2023-02-08T20:42:18.448Z,102919.69
2023-02-08T20:44:31.952Z,102915.80
2023-02-08T20:46:46.694Z,102915.27
2023-02-08T20:49:01.001Z,102916.72
2023-02-08T20:51:16.914Z,102913.27
2023-02-08T20:53:29.742Z,102908.46
2023-02-08T20:55:43.498Z,102909.26
2023-02-08T20:57:56.482Z,102904.03
2023-02-08T21:00:10.242Z,102900.35
2023-02-08T21:02:23.522Z,102898.02
2023-02-08T21:04:36.246Z,102893.98
2023-02-08T21:06:50.455Z,102896.62
2023-02-08T21:09:08.770Z,102896.45
2023-02-08T21:11:24.116Z,102898.90
2023-02-08T21:13:36.937Z,102894.39
2023-02-08T21:15:49.566Z,102901.22
2023-02-08T21:18:02.251Z,102902.46
2023-02-08T21:20:15.446Z,102893.11
2023-02-08T21:22:28.130Z,102892.63
2023-02-08T21:24:40.680Z,102889.52
2023-02-08T21:26:56.072Z,102886.91
2023-02-08T21:29:08.754Z,102887.95
2023-02-08T21:31:23.629Z,102889.73
2023-02-08T21:33:36.293Z,102886.19
2023-02-08T21:35:48.995Z,102881.55
2023-02-08T21:38:02.350Z,102873.75
2023-02-08T21:40:15.167Z,102872.20
2023-02-08T21:42:27.792Z,102872.85
2023-02-08T21:44:40.347Z,102871.73
2023-02-08T21:46:52.981Z,102870.49
2023-02-08T21:49:24.414Z,102873.84
2023-02-08T21:51:55.990Z,102874.59
2023-02-08T21:54:30.800Z,102872.12
2023-02-08T21:56:43.342Z,102868.38
2023-02-08T21:58:55.983Z,102866.67
2023-02-08T22:01:08.754Z,102861.80
2023-02-08T22:03:21.431Z,102859.42
2023-02-08T22:05:52.344Z,102857.25
2023-02-08T22:08:05.162Z,102855.14
2023-02-08T22:10:20.906Z,102857.58
2023-02-08T22:12:33.424Z,102855.58
2023-02-08T22:14:46.399Z,102848.81
2023-02-08T22:16:58.970Z,102849.06
2023-02-08T22:19:11.536Z,102847.40
2023-02-08T22:21:24.137Z,102846.14
2023-02-08T22:23:36.728Z,102845.23
2023-02-08T22:25:49.240Z,102847.60
2023-02-08T22:28:02.060Z,102845.31
2023-02-08T22:30:18.097Z,102843.20
2023-02-08T22:32:30.688Z,102838.70
2023-02-08T22:34:46.819Z,102840.02
2023-02-08T22:37:03.616Z,102834.35
2023-02-08T22:39:16.144Z,102831.94
2023-02-08T22:41:28.771Z,102830.77
2023-02-08T22:43:41.859Z,102826.83
2023-02-08T22:45:59.336Z,102831.20
2023-02-08T22:48:12.071Z,102824.77
2023-02-08T22:50:24.603Z,102821.05
2023-02-08T22:52:37.189Z,102821.93
2023-02-08T22:54:51.361Z,102821.94
2023-02-08T22:57:06.064Z,102818.67
2023-02-08T22:59:19.000Z,102812.23
2023-02-08T23:01:31.567Z,102810.77
2023-02-08T23:03:44.366Z,102806.14
2023-02-08T23:05:57.099Z,102801.75
2023-02-08T23:08:11.099Z,102800.03
2023-02-08T23:10:23.741Z,102794.74
2023-02-08T23:12:36.359Z,102793.09
2023-02-08T23:14:49.978Z,102788.63
2023-02-08T23:17:02.645Z,102784.84
2023-02-08T23:19:16.886Z,102784.67
2023-02-08T23:21:29.511Z,102783.55
2023-02-08T23:23:42.827Z,102780.92
2023-02-08T23:25:55.548Z,102777.05
2023-02-08T23:28:10.403Z,102778.04
2023-02-08T23:30:22.996Z,102773.58
2023-02-08T23:32:35.571Z,102770.41
2023-02-08T23:34:48.091Z,102765.02
2023-02-08T23:37:00.660Z,102764.84
2023-02-08T23:39:13.265Z,102765.55
2023-02-08T23:41:25.892Z,102762.95
2023-02-08T23:43:38.537Z,102760.85
2023-02-08T23:45:51.094Z,102757.41
2023-02-08T23:48:03.682Z,102758.20
2023-02-08T23:50:16.348Z,102755.48
2023-02-08T23:52:28.951Z,102755.71
2023-02-08T23:54:42.236Z,102753.59
2023-02-08T23:56:54.835Z,102756.40
2023-02-08T23:59:08.314Z,102752.23
